Time;durP1;ratioP1;P1;durP2;ratioP2;P2;SDS_P1;SDS_P2;PMS_P1;PMS_P2;Temp;Humidity;BMP_temperature;BMP_pressure;BME280_temperature;BME280_humidity;BME280_pressure;Samples;Min_cycle;Max_cycle;Signal;HPM_P1;HPM_P2
2022/06/28 00:02:52;;;;;;;18.77;17.08;;;23.40;72.80;;;;;;4828047;29;20187;-91
2022/06/28 00:05:29;;;;;;;18.80;17.00;;;23.40;72.70;;;;;;4860107;29;20189;-91
2022/06/28 00:07:59;;;;;;;19.45;17.65;;;23.40;72.80;;;;;;4846793;29;20178;-91
2022/06/28 00:10:31;;;;;;;19.38;17.60;;;23.40;72.80;;;;;;4831806;29;20554;-91
2022/06/28 00:13:10;;;;;;;19.70;17.85;;;23.40;72.90;;;;;;4816477;29;20190;-91
2022/06/28 00:18:34;;;;;;;18.77;16.88;;;23.40;72.90;;;;;;4831542;29;20182;-91
2022/06/28 00:21:11;;;;;;;19.85;18.05;;;23.40;72.80;;;;;;4843820;29;20588;-90
2022/06/28 00:23:42;;;;;;;19.30;17.50;;;23.40;72.80;;;;;;4821333;29;20196;-90
2022/06/28 00:26:12;;;;;;;18.90;17.20;;;23.40;72.80;;;;;;4834611;29;20407;-91
2022/06/28 00:28:51;;;;;;;18.25;16.65;;;23.40;72.80;;;;;;4830953;29;20296;-90
2022/06/28 00:31:24;;;;;;;19.42;17.63;;;23.40;72.90;;;;;;4810551;29;20202;-91
2022/06/28 00:33:53;;;;;;;18.60;16.88;;;23.40;72.90;;;;;;4832404;29;20190;-91
2022/06/28 00:36:24;;;;;;;19.38;17.58;;;23.40;73.00;;;;;;4817223;29;20210;-91
2022/06/28 00:38:54;;;;;;;19.92;18.13;;;23.40;73.00;;;;;;4815846;29;20249;-91
2022/06/28 00:41:38;;;;;;;19.73;17.83;;;23.40;73.00;;;;;;4824867;29;20224;-91
2022/06/28 00:44:10;;;;;;;19.63;17.80;;;23.40;73.00;;;;;;4844520;29;20640;-91
2022/06/28 00:46:44;;;;;;;19.08;17.33;;;23.40;73.00;;;;;;4822756;29;20245;-91
2022/06/28 00:49:11;;;;;;;19.90;18.10;;;23.40;73.00;;;;;;4823697;29;20283;-91
2022/06/28 00:51:42;;;;;;;19.40;17.63;;;23.40;73.00;;;;;;4800878;29;20293;-91
2022/06/28 00:54:29;;;;;;;20.38;18.48;;;23.40;73.00;;;;;;4816256;29;20213;-91
2022/06/28 00:57:01;;;;;;;20.20;18.30;;;23.30;73.10;;;;;;4812613;29;20239;-91
2022/06/28 00:59:32;;;;;;;19.38;17.58;;;23.30;73.00;;;;;;4837443;29;20254;-91
2022/06/28 01:02:08;;;;;;;18.98;17.25;;;23.30;73.00;;;;;;4852364;29;20260;-90
2022/06/28 01:04:39;;;;;;;19.13;17.42;;;23.30;73.10;;;;;;4816402;29;20189;-90
2022/06/28 01:07:16;;;;;;;19.63;17.83;;;23.30;73.10;;;;;;4802621;29;20258;-91
2022/06/28 01:09:53;;;;;;;19.67;17.77;;;23.30;73.20;;;;;;4813145;29;20210;-91
2022/06/28 01:12:22;;;;;;;19.95;18.15;;;23.30;73.20;;;;;;4845350;29;20573;-91
2022/06/28 01:15:08;;;;;;;19.88;18.05;;;23.30;73.20;;;;;;4813003;29;20253;-91
2022/06/28 01:17:33;;;;;;;19.95;18.05;;;23.30;73.30;;;;;;4798728;29;20202;-90
2022/06/28 01:20:09;;;;;;;19.65;17.85;;;23.30;73.30;;;;;;4797169;29;20236;-91
2022/06/28 01:22:48;;;;;;;19.15;17.45;;;23.30;73.30;;;;;;4803262;29;20184;-91
2022/06/28 01:25:22;;;;;;;21.40;19.38;;;23.30;73.30;;;;;;4849056;29;20193;-91
2022/06/28 01:27:54;;;;;;;19.65;17.83;;;23.30;73.30;;;;;;4834404;29;20626;-91
2022/06/28 01:30:30;;;;;;;19.52;17.73;;;23.30;73.40;;;;;;4826761;29;20183;-91
2022/06/28 01:33:05;;;;;;;20.25;18.35;;;23.30;73.40;;;;;;4779129;29;20183;-91
2022/06/28 01:35:35;;;;;;;19.75;17.90;;;23.30;73.40;;;;;;4806136;29;20265;-90
2022/06/28 01:38:08;;;;;;;19.73;17.92;;;23.20;73.30;;;;;;4812140;29;20186;-91
2022/06/28 01:40:37;;;;;;;19.83;18.00;;;23.20;73.30;;;;;;4812461;29;20187;-90
2022/06/28 01:43:12;;;;;;;19.70;17.90;;;23.20;73.40;;;;;;4801098;29;20201;-90
2022/06/28 01:45:44;;;;;;;19.25;17.55;;;23.20;73.40;;;;;;4818991;29;20218;-91
2022/06/28 01:48:18;;;;;;;19.60;17.80;;;23.20;73.40;;;;;;4769036;29;20222;-91
2022/06/28 01:50:48;;;;;;;19.65;17.85;;;23.20;73.50;;;;;;4772242;30;20188;-91
2022/06/28 01:53:23;;;;;;;19.98;18.10;;;23.30;73.50;;;;;;4787853;29;20235;-91
2022/06/28 01:55:49;;;;;;;20.10;18.20;;;23.20;73.50;;;;;;4790158;29;20219;-91
2022/06/28 01:58:15;;;;;;;19.00;17.25;;;23.20;73.40;;;;;;4760015;30;20194;-91
2022/06/28 02:00:47;;;;;;;20.30;18.40;;;23.20;73.70;;;;;;4780196;29;20245;-90
2022/06/28 02:03:21;;;;;;;19.08;17.27;;;23.20;73.60;;;;;;4781791;29;20190;-90
2022/06/28 02:06:00;;;;;;;19.92;18.02;;;23.20;73.70;;;;;;4799305;29;20189;-90
2022/06/28 02:08:36;;;;;;;19.60;17.80;;;23.10;73.70;;;;;;4815054;29;20182;-91
2022/06/28 02:11:03;;;;;;;19.58;17.80;;;23.10;73.60;;;;;;4829223;29;20201;-91
2022/06/28 02:13:33;;;;;;;19.50;17.70;;;23.10;73.60;;;;;;4814117;29;20192;-90
2022/06/28 02:16:05;;;;;;;20.23;18.33;;;23.10;73.60;;;;;;4788122;29;20228;-90
2022/06/28 02:18:36;;;;;;;19.65;17.85;;;23.10;73.60;;;;;;4788415;29;20645;-90
2022/06/28 02:21:08;;;;;;;20.40;18.50;;;23.10;73.70;;;;;;4790431;29;20738;-90
2022/06/28 02:23:37;;;;;;;19.42;17.63;;;23.10;73.60;;;;;;4835319;29;20169;-91
2022/06/28 02:26:11;;;;;;;19.30;17.50;;;23.10;73.60;;;;;;4844222;29;20617;-90
2022/06/28 02:28:40;;;;;;;19.92;18.10;;;23.10;73.70;;;;;;4921383;29;20195;-90
2022/06/28 02:31:13;;;;;;;19.30;17.50;;;23.10;73.60;;;;;;4905546;29;20175;-90
2022/06/28 02:33:52;;;;;;;20.08;18.17;;;23.10;73.70;;;;;;4904333;29;20197;-91
2022/06/28 02:41:50;;;;;;;19.75;17.90;;;23.10;73.80;;;;;;4908578;29;20253;-91
2022/06/28 02:44:21;;;;;;;19.50;17.70;;;23.10;73.70;;;;;;4906317;29;20182;-90
2022/06/28 02:46:59;;;;;;;20.15;18.27;;;23.10;73.80;;;;;;4888662;29;20245;-91
2022/06/28 02:49:27;;;;;;;19.80;18.00;;;23.10;73.80;;;;;;4920569;29;20305;-89
2022/06/28 02:51:53;;;;;;;20.20;18.40;;;23.10;73.80;;;;;;4919474;29;20227;-91
2022/06/28 02:54:24;;;;;;;19.58;17.77;;;23.10;73.80;;;;;;4884866;29;20201;-91
2022/06/28 02:56:52;;;;;;;19.92;18.13;;;23.00;73.80;;;;;;4888035;29;20226;-90
2022/06/28 02:59:19;;;;;;;20.23;18.33;;;23.10;73.80;;;;;;4903526;29;20218;-90
2022/06/28 03:01:46;;;;;;;19.27;17.48;;;23.10;73.90;;;;;;4888407;29;20566;-91
2022/06/28 03:04:13;;;;;;;19.50;17.77;;;23.00;73.90;;;;;;4891081;29;20575;-91
2022/06/28 03:06:43;;;;;;;19.52;17.73;;;23.10;73.90;;;;;;4869843;29;20195;-90
2022/06/28 03:09:12;;;;;;;19.50;17.73;;;23.10;73.90;;;;;;4855108;29;20195;-91
2022/06/28 03:11:40;;;;;;;20.75;18.85;;;23.10;73.90;;;;;;4830443;29;20258;-91
2022/06/28 03:14:11;;;;;;;20.30;18.38;;;23.10;73.90;;;;;;4830342;29;20242;-91
2022/06/28 03:16:42;;;;;;;20.35;18.45;;;23.00;73.90;;;;;;4826828;29;20271;-91
2022/06/28 03:19:13;;;;;;;19.45;17.65;;;23.10;74.00;;;;;;4809326;29;20202;-91
2022/06/28 03:21:42;;;;;;;19.88;18.02;;;23.10;74.00;;;;;;4794670;30;20205;-91
2022/06/28 03:24:14;;;;;;;20.13;18.27;;;23.10;73.90;;;;;;4773259;30;20200;-91
2022/06/28 03:26:41;;;;;;;19.27;17.48;;;23.00;73.90;;;;;;4793784;29;20187;-91
2022/06/28 03:29:09;;;;;;;19.98;18.17;;;23.00;73.90;;;;;;4793693;29;20191;-91
2022/06/28 03:31:39;;;;;;;20.55;18.60;;;23.00;73.90;;;;;;4794159;29;20585;-91
2022/06/28 03:34:08;;;;;;;20.00;18.10;;;23.10;73.90;;;;;;4793605;29;20188;-90
2022/06/28 03:36:50;;;;;;;19.17;17.42;;;23.00;73.90;;;;;;4778381;30;20223;-91
2022/06/28 03:39:23;;;;;;;19.17;17.38;;;23.00;74.00;;;;;;4760434;30;20192;-91
2022/06/28 03:42:06;;;;;;;18.80;17.10;;;23.00;73.90;;;;;;4756806;30;20196;-91
2022/06/28 03:44:36;;;;;;;19.35;17.55;;;22.90;73.90;;;;;;4760349;30;20304;-91
2022/06/28 03:47:12;;;;;;;19.65;17.85;;;23.00;74.00;;;;;;4756564;30;20539;-91
2022/06/28 03:49:42;;;;;;;19.38;17.58;;;23.00;74.00;;;;;;4755573;30;20192;-91
2022/06/28 03:52:48;;;;;;;20.00;18.10;;;23.00;73.90;;;;;;4690295;30;20242;-91
2022/06/28 03:55:25;;;;;;;19.75;17.85;;;23.00;73.80;;;;;;4693898;30;20205;-92
2022/06/28 03:58:01;;;;;;;19.60;17.80;;;23.00;73.90;;;;;;4698792;30;20251;-91
2022/06/28 04:00:49;;;;;;;19.02;17.23;;;23.00;73.90;;;;;;4685142;30;20219;-91
2022/06/28 04:03:35;;;;;;;19.88;18.05;;;23.00;73.80;;;;;;4696026;30;20210;-90
2022/06/28 04:06:08;;;;;;;19.42;17.63;;;23.10;73.90;;;;;;4698936;30;20203;-91
2022/06/28 04:08:51;;;;;;;18.80;17.00;;;23.00;73.90;;;;;;4690983;30;20208;-90
2022/06/28 04:11:19;;;;;;;20.10;18.30;;;23.00;73.90;;;;;;4688376;30;20706;-91
2022/06/28 04:13:50;;;;;;;19.60;17.77;;;23.00;73.90;;;;;;4714912;30;20203;-91
2022/06/28 04:16:20;;;;;;;19.90;18.00;;;23.00;73.90;;;;;;4736041;30;20217;-90
2022/06/28 04:18:50;;;;;;;19.50;17.70;;;23.00;74.00;;;;;;4765886;30;20186;-91
2022/06/28 04:21:28;;;;;;;19.65;17.83;;;23.00;74.00;;;;;;4770678;30;20195;-90
2022/06/28 04:24:10;;;;;;;19.60;17.80;;;23.00;74.00;;;;;;4803446;29;20221;-90
2022/06/28 04:26:44;;;;;;;19.40;17.60;;;22.90;74.00;;;;;;4826107;29;20186;-91
2022/06/28 04:29:10;;;;;;;18.83;17.10;;;23.00;74.10;;;;;;4863332;29;20191;-90
2022/06/28 04:31:51;;;;;;;19.73;17.90;;;23.00;74.10;;;;;;4899476;29;20236;-91
2022/06/28 04:34:22;;;;;;;19.27;17.48;;;22.90;74.10;;;;;;4899352;29;20199;-91
2022/06/28 04:36:53;;;;;;;19.00;17.23;;;22.90;74.10;;;;;;4881813;29;20223;-91
2022/06/28 04:39:29;;;;;;;18.90;17.20;;;22.90;74.10;;;;;;4865378;29;20188;-90
2022/06/28 04:42:00;;;;;;;18.98;17.27;;;22.90;74.10;;;;;;4837129;29;20185;-90
2022/06/28 04:44:30;;;;;;;19.83;17.98;;;23.00;74.00;;;;;;4804215;29;20201;-90
2022/06/28 04:47:03;;;;;;;18.52;16.83;;;23.00;74.00;;;;;;4807021;29;20206;-91
2022/06/28 04:49:29;;;;;;;18.50;16.70;;;23.00;74.10;;;;;;4847916;29;20184;-90
2022/06/28 04:51:57;;;;;;;20.02;18.13;;;23.00;74.10;;;;;;4862533;29;20300;-90
2022/06/28 04:54:28;;;;;;;19.05;17.35;;;22.90;74.00;;;;;;4861881;29;20366;-90
2022/06/28 04:57:05;;;;;;;19.52;17.70;;;23.10;74.00;;;;;;4862858;29;20680;-90
2022/06/28 04:59:34;;;;;;;19.67;17.88;;;23.10;73.60;;;;;;4862846;29;20180;-90
2022/06/28 05:02:11;;;;;;;20.08;18.17;;;23.10;73.60;;;;;;4842347;29;20193;-89
2022/06/28 05:04:44;;;;;;;19.23;17.40;;;23.10;73.50;;;;;;4797571;29;20239;-91
2022/06/28 05:07:24;;;;;;;17.30;15.60;;;23.10;73.80;;;;;;4795458;29;20558;-89
2022/06/28 05:09:51;;;;;;;18.95;17.23;;;23.20;73.80;;;;;;4810119;29;20281;-90
2022/06/28 05:12:29;;;;;;;19.08;17.33;;;23.10;73.30;;;;;;4832862;29;20192;-90
2022/06/28 05:15:03;;;;;;;18.20;16.50;;;23.20;73.50;;;;;;4814158;29;20212;-91
2022/06/28 05:17:35;;;;;;;19.15;17.35;;;23.10;73.70;;;;;;4829073;29;20247;-90
2022/06/28 05:20:02;;;;;;;18.52;16.63;;;23.10;73.50;;;;;;4852709;29;20180;-92
2022/06/28 05:22:41;;;;;;;19.15;17.45;;;23.20;73.70;;;;;;4842658;29;20189;-91
2022/06/28 05:25:11;;;;;;;18.60;16.90;;;23.20;73.60;;;;;;4798574;29;20624;-91
2022/06/28 05:27:47;;;;;;;19.48;17.67;;;23.10;73.20;;;;;;4809209;29;20190;-90
2022/06/28 05:30:16;;;;;;;18.83;17.13;;;23.10;73.60;;;;;;4822177;29;20201;-91
2022/06/28 05:32:57;;;;;;;18.95;17.23;;;23.20;73.20;;;;;;4822732;29;20552;-91
2022/06/28 05:35:34;;;;;;;18.35;16.73;;;23.20;73.60;;;;;;4820977;29;20198;-90
2022/06/28 05:38:02;;;;;;;18.20;16.50;;;23.20;73.20;;;;;;4828998;29;20190;-89
2022/06/28 05:40:36;;;;;;;18.13;16.42;;;23.30;73.20;;;;;;4823437;29;20184;-90
2022/06/28 05:43:04;;;;;;;16.88;15.38;;;23.30;73.20;;;;;;4801678;29;20215;-90
2022/06/28 05:45:32;;;;;;;18.13;16.42;;;23.30;73.20;;;;;;4787921;29;20195;-90
2022/06/28 05:48:01;;;;;;;18.45;16.75;;;23.40;72.80;;;;;;4821759;29;20191;-90
2022/06/28 05:50:36;;;;;;;16.98;15.48;;;23.30;72.70;;;;;;4804366;29;20557;-90
2022/06/28 05:53:02;;;;;;;17.35;15.70;;;23.30;72.90;;;;;;4806750;29;20239;-90
2022/06/28 05:55:36;;;;;;;16.70;15.27;;;23.40;73.10;;;;;;4818712;29;20218;-92
2022/06/28 05:58:03;;;;;;;18.25;16.60;;;23.50;72.70;;;;;;4816475;29;20302;-90
2022/06/28 06:00:44;;;;;;;16.92;15.38;;;23.50;72.40;;;;;;4841562;29;20185;-90
2022/06/28 06:03:53;;;;;;;17.27;15.68;;;23.50;72.60;;;;;;4879110;29;20191;-91
2022/06/28 06:06:32;;;;;;;17.75;16.13;;;23.50;72.40;;;;;;4823867;29;20185;-91
2022/06/28 06:08:59;;;;;;;16.73;15.23;;;23.50;72.30;;;;;;4788068;29;20285;-90
2022/06/28 06:11:32;;;;;;;18.42;16.73;;;23.60;72.10;;;;;;4787187;29;20569;-90
2022/06/28 06:13:59;;;;;;;17.80;16.20;;;23.60;71.90;;;;;;4788872;29;20196;-91
2022/06/28 06:16:28;;;;;;;16.67;15.18;;;23.70;71.70;;;;;;4791409;29;20273;-89
2022/06/28 06:18:59;;;;;;;17.55;15.98;;;23.60;72.10;;;;;;4780278;29;20260;-90
2022/06/28 06:24:13;;;;;;;17.85;16.25;;;23.50;72.60;;;;;;4982749;28;20226;-90
2022/06/28 06:26:41;;;;;;;18.27;16.58;;;23.60;72.50;;;;;;4945087;28;20683;-90
2022/06/28 06:29:07;;;;;;;17.30;15.57;;;23.50;72.50;;;;;;4953444;28;20169;-91
2022/06/28 06:31:44;;;;;;;16.95;15.45;;;23.50;72.70;;;;;;4943263;28;20169;-91
2022/06/28 06:34:39;;;;;;;16.90;15.40;;;23.50;72.90;;;;;;4942707;28;20169;-90
2022/06/28 07:29:48;;;;;;;16.27;14.77;;;23.60;72.70;;;;;;4978925;28;20275;-92
2022/06/28 07:32:15;;;;;;;16.40;14.90;;;23.70;72.90;;;;;;4946258;28;20173;-92
2022/06/28 07:55:35;;;;;;;15.95;14.55;;;23.60;72.80;;;;;;4985534;28;20631;-90
2022/06/28 07:58:45;;;;;;;16.23;14.63;;;23.70;72.60;;;;;;4964544;28;20195;-91
2022/06/28 08:43:20;;;;;;;16.23;14.73;;;23.70;72.20;;;;;;4992964;28;20210;-91
2022/06/28 08:45:53;;;;;;;16.63;15.13;;;23.80;72.30;;;;;;4946840;28;20177;-92
2022/06/28 08:48:44;;;;;;;16.25;14.75;;;23.70;72.10;;;;;;4943301;29;20182;-91
2022/06/28 08:51:44;;;;;;;16.60;15.10;;;23.90;72.30;;;;;;4885997;29;20187;-92
2022/06/28 10:03:58;;;;;;;16.80;15.20;;;24.20;70.60;;;;;;4992967;28;20257;-91
2022/06/28 10:06:26;;;;;;;16.92;15.35;;;24.20;70.70;;;;;;4944624;28;20184;-90
2022/06/28 10:08:54;;;;;;;16.67;15.18;;;24.20;70.90;;;;;;4943318;28;20301;-91
2022/06/28 10:15:01;;;;;;;16.65;15.13;;;24.20;71.00;;;;;;4945404;28;20562;-91
2022/06/28 10:17:04;;;;;;;16.95;15.38;;;24.10;71.00;;;;;;4966438;28;20197;-90
2022/06/28 10:19:38;;;;;;;16.00;14.57;;;24.20;70.50;;;;;;4949930;28;20172;-91
2022/06/28 10:22:24;;;;;;;16.98;15.38;;;24.20;70.70;;;;;;4925258;29;20193;-92
2022/06/28 10:24:55;;;;;;;16.83;15.32;;;24.20;70.70;;;;;;4902155;29;20568;-92
2022/06/28 10:27:52;;;;;;;16.92;15.40;;;24.30;69.90;;;;;;4887843;29;20298;-91
2022/06/28 11:29:50;;;;;;;17.42;15.73;;;24.10;72.00;;;;;;4992034;28;20282;-90
2022/06/28 11:32:26;;;;;;;18.52;16.90;;;24.10;71.80;;;;;;4957100;28;20276;-91
2022/06/28 11:35:41;;;;;;;18.27;16.55;;;24.10;71.40;;;;;;4955795;28;20239;-92
2022/06/28 11:38:17;;;;;;;18.65;16.95;;;24.20;71.40;;;;;;4971375;28;20271;-90
2022/06/28 11:41:26;;;;;;;19.10;17.40;;;24.30;71.50;;;;;;4939623;28;20176;-91
2022/06/28 11:43:58;;;;;;;20.25;18.35;;;24.60;69.90;;;;;;4951983;28;20189;-90
2022/06/28 11:46:31;;;;;;;20.20;18.33;;;24.80;69.00;;;;;;4929320;28;20168;-91
2022/06/28 11:52:23;;;;;;;21.05;19.05;;;24.90;68.50;;;;;;4980436;28;20628;-91
2022/06/28 11:54:56;;;;;;;20.30;18.42;;;24.80;69.10;;;;;;4930752;28;20193;-91
2022/06/28 11:57:44;;;;;;;20.48;18.52;;;24.90;68.70;;;;;;4945626;28;20259;-90
2022/06/28 12:00:16;;;;;;;20.52;18.65;;;24.80;68.70;;;;;;4926107;28;20232;-91
2022/06/28 12:02:49;;;;;;;21.15;19.25;;;24.90;68.60;;;;;;4930778;28;20168;-89
2022/06/28 12:05:31;;;;;;;20.80;19.00;;;24.90;68.40;;;;;;4932200;28;20181;-91
2022/06/28 12:08:01;;;;;;;21.77;19.77;;;24.90;68.70;;;;;;4960501;28;20255;-91
2022/06/28 12:10:28;;;;;;;19.95;18.05;;;24.90;68.10;;;;;;4930425;28;20189;-90
2022/06/28 12:12:55;;;;;;;21.35;19.38;;;25.10;67.80;;;;;;4929751;28;20191;-90
2022/06/28 12:15:28;;;;;;;22.70;20.63;;;25.00;67.90;;;;;;4944761;28;20159;-92
2022/06/28 12:17:59;;;;;;;22.15;20.08;;;24.90;68.90;;;;;;4928652;28;20227;-91
2022/06/28 12:20:32;;;;;;;21.15;19.25;;;24.90;68.90;;;;;;4929355;28;20176;-92
2022/06/28 12:23:01;;;;;;;21.92;19.92;;;24.90;68.30;;;;;;4922197;29;20186;-89
2022/06/28 12:25:40;;;;;;;;;;;;;;;;;;;;;
2022/06/28 12:28:09;;;;;;;21.63;19.70;;;24.80;68.70;;;;;;4926227;29;20296;-89
2022/06/28 12:31:00;;;;;;;22.00;19.83;;;24.80;68.90;;;;;;4886192;29;20249;-92
2022/06/28 12:33:28;;;;;;;21.52;19.52;;;24.80;69.30;;;;;;4867818;29;20751;-89
2022/06/28 12:36:02;;;;;;;21.15;19.25;;;24.80;68.60;;;;;;4869968;29;20180;-89
2022/06/28 12:38:30;;;;;;;23.02;20.77;;;24.90;68.50;;;;;;4887798;29;20184;-90
2022/06/28 12:40:59;;;;;;;20.27;18.33;;;24.80;68.60;;;;;;4890078;29;20300;-91
2022/06/28 12:43:25;;;;;;;22.70;20.55;;;24.90;68.80;;;;;;4869275;29;20210;-89
2022/06/28 12:46:00;;;;;;;20.15;18.25;;;24.90;68.90;;;;;;4883363;29;20648;-91
2022/06/28 12:48:26;;;;;;;20.65;18.85;;;24.90;68.50;;;;;;4864167;29;20195;-90
2022/06/28 12:50:53;;;;;;;21.98;19.77;;;25.00;68.60;;;;;;4860039;29;20232;-91
2022/06/28 12:53:23;;;;;;;22.30;20.23;;;25.00;68.20;;;;;;4874870;29;20554;-92
2022/06/28 12:55:58;;;;;;;23.40;21.10;;;24.90;68.50;;;;;;4867733;29;20179;-92
2022/06/28 12:58:24;;;;;;;23.52;21.23;;;24.80;69.00;;;;;;4865548;29;20183;-89
2022/06/28 13:01:24;;;;;;;23.27;21.08;;;24.70;69.50;;;;;;4871147;29;20188;-90
2022/06/28 13:03:59;;;;;;;23.50;21.23;;;24.70;69.90;;;;;;4932896;29;20186;-89
2022/06/28 13:06:42;;;;;;;22.95;20.75;;;24.50;70.10;;;;;;4949713;29;20181;-90
2022/06/28 13:09:09;;;;;;;21.98;19.98;;;24.50;70.10;;;;;;4904276;29;20225;-88
2022/06/28 13:11:36;;;;;;;21.50;19.50;;;24.50;70.30;;;;;;4904365;29;20287;-89
2022/06/28 13:14:04;;;;;;;21.42;19.48;;;24.50;70.50;;;;;;4906076;29;20230;-88
2022/06/28 13:16:36;;;;;;;22.80;20.60;;;24.70;70.30;;;;;;4865558;29;20217;-90
2022/06/28 13:19:08;;;;;;;21.40;19.27;;;24.60;69.80;;;;;;4825053;29;20188;-89
2022/06/28 13:21:39;;;;;;;22.80;20.67;;;24.50;70.10;;;;;;4866044;29;20699;-90
2022/06/28 13:24:12;;;;;;;22.17;19.83;;;24.50;70.20;;;;;;4852759;29;20198;-91
2022/06/28 13:27:07;;;;;;;22.15;20.08;;;24.40;70.30;;;;;;4852109;29;20223;-90
2022/06/28 13:29:36;;;;;;;21.83;19.65;;;24.50;70.60;;;;;;4863309;29;20222;-89
2022/06/28 13:32:03;;;;;;;21.67;19.38;;;24.50;71.60;;;;;;4867686;29;20192;-90
2022/06/28 13:34:30;;;;;;;21.70;19.70;;;24.50;70.30;;;;;;4866777;29;20557;-91
2022/06/28 13:37:00;;;;;;;22.60;20.42;;;24.50;70.50;;;;;;4865294;29;20212;-90
2022/06/28 13:39:26;;;;;;;22.27;20.17;;;24.50;70.50;;;;;;4881159;29;20187;-88
2022/06/28 13:41:52;;;;;;;22.73;20.42;;;24.40;70.60;;;;;;4875032;29;20198;-90
2022/06/28 13:44:20;;;;;;;22.67;20.15;;;24.50;71.50;;;;;;4874132;29;20216;-90
2022/06/28 13:46:47;;;;;;;22.02;19.75;;;24.40;70.90;;;;;;4899694;29;20200;-89
2022/06/28 13:49:18;;;;;;;21.98;19.77;;;24.40;70.90;;;;;;4918582;29;20195;-89
2022/06/28 13:51:45;;;;;;;22.17;19.88;;;24.40;71.00;;;;;;4914252;29;20648;-89
2022/06/28 13:54:12;;;;;;;22.08;19.95;;;24.40;70.90;;;;;;4915894;29;20170;-89
2022/06/28 13:56:38;;;;;;;22.30;20.27;;;24.40;71.00;;;;;;4889383;29;20253;-90
2022/06/28 13:59:04;;;;;;;21.85;19.60;;;24.40;71.00;;;;;;4869906;29;20188;-89
2022/06/28 14:01:31;;;;;;;21.58;19.35;;;24.40;70.90;;;;;;4899445;29;20237;-90
2022/06/28 14:03:57;;;;;;;21.88;19.73;;;24.40;70.90;;;;;;4918888;29;20185;-89
2022/06/28 14:06:26;;;;;;;21.95;19.65;;;24.50;70.50;;;;;;4904548;29;20205;-90
2022/06/28 14:08:52;;;;;;;22.20;20.10;;;24.40;70.40;;;;;;4920078;29;20166;-89
2022/06/28 14:11:17;;;;;;;20.95;19.00;;;24.50;70.30;;;;;;4923444;29;20186;-89
2022/06/28 14:13:43;;;;;;;21.90;19.80;;;24.50;70.30;;;;;;4909765;29;20182;-89
2022/06/28 14:16:10;;;;;;;21.98;19.80;;;24.40;70.60;;;;;;4908787;29;20205;-90
2022/06/28 14:18:36;;;;;;;20.95;18.95;;;24.50;70.70;;;;;;4920843;29;20167;-89
2022/06/28 14:21:02;;;;;;;20.50;18.58;;;24.50;70.30;;;;;;4907621;29;20174;-90
2022/06/28 14:23:28;;;;;;;21.67;19.65;;;24.50;70.10;;;;;;4922370;29;20179;-88
2022/06/28 14:25:55;;;;;;;21.95;19.67;;;24.50;70.10;;;;;;4907074;29;20166;-88
2022/06/28 14:28:22;;;;;;;20.85;18.88;;;24.50;70.30;;;;;;4971977;28;20239;-90
2022/06/28 14:30:52;;;;;;;22.48;20.23;;;24.50;70.60;;;;;;4945644;28;20161;-90
2022/06/28 14:33:18;;;;;;;21.55;19.55;;;24.40;70.60;;;;;;4961263;28;20157;-88
2022/06/28 14:35:47;;;;;;;20.95;19.05;;;24.50;70.70;;;;;;4943868;28;20268;-89
2022/06/28 14:38:15;;;;;;;21.15;19.23;;;24.50;70.50;;;;;;4963702;28;20180;-88
2022/06/28 14:40:44;;;;;;;20.33;18.50;;;24.50;69.60;;;;;;4949136;28;20176;-87
2022/06/28 14:43:10;;;;;;;21.20;19.17;;;24.60;68.90;;;;;;4965992;28;20207;-88
2022/06/28 14:45:36;;;;;;;20.77;18.67;;;24.70;69.50;;;;;;4948191;28;20161;-89
2022/06/28 14:48:16;;;;;;;21.55;19.55;;;24.60;69.90;;;;;;4965397;28;20240;-90
2022/06/28 14:50:51;;;;;;;20.17;18.27;;;24.50;70.20;;;;;;4929057;29;20220;-89
2022/06/28 14:53:23;;;;;;;21.20;19.20;;;24.60;70.30;;;;;;4917655;29;20192;-88
2022/06/28 14:55:52;;;;;;;21.08;18.98;;;24.60;70.10;;;;;;4930104;29;20517;-89
2022/06/28 14:58:21;;;;;;;19.92;17.92;;;24.60;70.20;;;;;;4914487;29;20173;-89
2022/06/28 15:00:47;;;;;;;19.40;17.70;;;24.50;70.20;;;;;;4914518;29;20207;-89
2022/06/28 15:03:13;;;;;;;19.40;17.50;;;24.60;70.10;;;;;;4913453;29;20240;-89
2022/06/28 15:05:39;;;;;;;21.77;19.70;;;24.60;70.00;;;;;;4912924;29;20189;-89
2022/06/28 15:08:22;;;;;;;;;;;;;;;;;;;;;
2022/06/28 15:14:45;;;;;;;20.20;18.23;;;24.50;70.10;;;;;;4836959;29;20269;-90
2022/06/28 15:17:34;;;;;;;20.70;18.80;;;24.60;70.20;;;;;;4818724;29;20249;-90
2022/06/28 15:20:43;;;;;;;20.50;18.50;;;24.60;70.20;;;;;;4804546;29;20219;-90
2022/06/28 15:31:41;;;;;;;20.15;18.10;;;24.70;70.40;;;;;;4800523;30;20184;-90
2022/06/28 15:34:20;;;;;;;19.50;17.70;;;24.60;70.30;;;;;;4799566;30;20267;-90
2022/06/28 15:36:48;;;;;;;20.23;18.30;;;24.60;70.40;;;;;;4773911;30;20674;-90
2022/06/28 15:39:14;;;;;;;19.55;17.75;;;24.50;70.40;;;;;;4742158;30;20196;-90
2022/06/28 15:41:41;;;;;;;20.00;18.20;;;24.60;70.40;;;;;;4725832;30;20205;-90
2022/06/28 15:44:09;;;;;;;20.77;18.88;;;24.50;70.30;;;;;;4733322;30;20194;-90
2022/06/28 15:46:41;;;;;;;20.17;18.23;;;24.50;71.20;;;;;;4719276;30;20673;-89
2022/06/28 15:49:09;;;;;;;19.63;17.83;;;24.60;70.40;;;;;;4808039;29;20213;-90
2022/06/28 15:51:35;;;;;;;20.08;18.17;;;24.60;70.30;;;;;;4851894;29;20200;-90
2022/06/28 15:54:05;;;;;;;19.02;17.23;;;24.60;70.30;;;;;;4848444;29;20188;-90
2022/06/28 15:56:30;;;;;;;19.83;18.02;;;24.60;70.30;;;;;;4865409;29;20721;-90
2022/06/28 15:58:56;;;;;;;20.17;18.38;;;24.60;70.30;;;;;;4849780;29;20180;-90
2022/06/28 16:01:24;;;;;;;20.08;18.25;;;24.50;70.30;;;;;;4855835;29;20191;-90
2022/06/28 16:03:49;;;;;;;20.50;18.50;;;24.50;70.40;;;;;;4871345;29;20203;-90
2022/06/28 16:06:15;;;;;;;20.75;18.83;;;24.50;70.50;;;;;;4886490;29;20183;-89
2022/06/28 16:08:53;;;;;;;20.40;18.50;;;24.50;70.50;;;;;;4918879;29;20181;-91
2022/06/28 16:11:22;;;;;;;19.38;17.58;;;24.50;70.40;;;;;;4942538;29;20515;-91
2022/06/28 16:13:51;;;;;;;19.80;18.00;;;24.60;70.40;;;;;;4909301;29;20184;-90
2022/06/28 16:16:19;;;;;;;20.08;18.27;;;24.60;69.90;;;;;;4909509;29;20201;-91
2022/06/28 16:18:45;;;;;;;19.13;17.42;;;24.70;69.50;;;;;;4909910;29;20178;-90
2022/06/28 16:21:14;;;;;;;19.50;17.60;;;24.70;69.40;;;;;;4908851;29;20173;-91
2022/06/28 16:23:45;;;;;;;18.55;16.90;;;24.70;69.00;;;;;;4909232;29;20170;-90
2022/06/28 16:26:10;;;;;;;19.17;17.38;;;24.70;68.90;;;;;;4942113;28;20208;-89
2022/06/28 16:28:37;;;;;;;19.08;17.27;;;24.70;69.20;;;;;;4943641;28;20188;-91
2022/06/28 16:31:05;;;;;;;20.45;18.55;;;24.70;68.70;;;;;;4943438;28;20650;-90
2022/06/28 16:33:35;;;;;;;18.92;17.15;;;24.70;69.20;;;;;;4944158;28;20188;-91
2022/06/28 16:36:01;;;;;;;18.55;16.83;;;24.70;68.60;;;;;;4960195;28;20608;-90
2022/06/28 16:38:28;;;;;;;18.65;16.95;;;24.70;68.90;;;;;;4944152;28;20168;-90
2022/06/28 16:40:56;;;;;;;20.65;18.75;;;24.70;68.90;;;;;;4943862;28;20620;-91
2022/06/28 16:43:25;;;;;;;18.65;16.92;;;24.70;69.00;;;;;;4944929;28;20180;-90
2022/06/28 16:45:51;;;;;;;19.95;18.13;;;24.70;69.00;;;;;;4944489;28;20176;-90
2022/06/28 16:48:20;;;;;;;18.00;16.40;;;24.70;69.40;;;;;;4959391;28;20167;-90
2022/06/28 16:50:47;;;;;;;18.98;17.27;;;24.70;69.20;;;;;;4943774;28;20177;-90
2022/06/28 16:53:13;;;;;;;19.92;18.10;;;24.60;69.20;;;;;;4960885;28;20168;-90
2022/06/28 16:55:39;;;;;;;18.70;17.08;;;24.70;69.30;;;;;;4945741;28;20231;-90
2022/06/28 16:58:05;;;;;;;18.88;17.17;;;24.70;69.50;;;;;;4947141;28;20200;-91
2022/06/28 17:00:33;;;;;;;19.35;17.65;;;24.70;69.80;;;;;;4948549;28;20169;-90
2022/06/28 17:03:02;;;;;;;20.35;18.38;;;24.60;70.00;;;;;;4945872;28;20535;-91
2022/06/28 17:05:29;;;;;;;19.20;17.40;;;24.60;70.10;;;;;;4977155;28;20654;-91
2022/06/28 17:07:56;;;;;;;19.77;17.98;;;24.60;70.50;;;;;;4944913;28;20176;-91
2022/06/28 17:10:34;;;;;;;18.80;17.10;;;24.70;70.60;;;;;;4945541;28;20620;-91
2022/06/28 17:13:01;;;;;;;19.02;17.33;;;24.70;70.70;;;;;;4943963;28;20173;-90
2022/06/28 17:15:28;;;;;;;18.52;16.73;;;24.70;70.30;;;;;;4944680;28;20508;-90
2022/06/28 17:17:55;;;;;;;19.58;17.77;;;24.80;70.10;;;;;;4944725;28;20595;-90
2022/06/28 17:20:21;;;;;;;19.45;17.65;;;24.80;69.70;;;;;;4946085;28;20227;-90
2022/06/28 17:22:47;;;;;;;18.83;17.13;;;24.70;70.10;;;;;;4944497;28;20215;-90
2022/06/28 17:25:13;;;;;;;18.75;17.05;;;24.70;70.00;;;;;;4945337;28;20172;-90
2022/06/28 17:27:43;;;;;;;18.00;16.40;;;24.70;70.00;;;;;;4944268;28;20228;-90
2022/06/28 17:30:12;;;;;;;19.38;17.58;;;24.70;70.10;;;;;;4963494;28;20168;-90